sensor_id;sensor_type;location;lat;lon;timestamp;pressure;altitude;pressure_sealevel;temperature;humidity
12172;BME280;6149;52.418;13.668;2023-12-20T00:00:18;100450.00;;;5.92;100.00
12172;BME280;6149;52.418;13.668;2023-12-20T00:02:47;100457.88;;;5.92;100.00
12172;BME280;6149;52.418;13.668;2023-12-20T00:05:15;100456.22;;;5.90;100.00
12172;BME280;6149;52.418;13.668;2023-12-20T00:07:42;100451.94;;;5.86;100.00
12172;BME280;6149;52.418;13.668;2023-12-20T00:10:10;100451.03;;;5.87;100.00
12172;BME280;6149;52.418;13.668;2023-12-20T00:12:38;100446.25;;;5.98;100.00
12172;BME280;6149;52.418;13.668;2023-12-20T00:15:06;100443.91;;;5.92;100.00
12172;BME280;6149;52.418;13.668;2023-12-20T00:17:33;100438.50;;;5.95;100.00
12172;BME280;6149;52.418;13.668;2023-12-20T00:20:00;100438.44;;;5.96;100.00
12172;BME280;6149;52.418;13.668;2023-12-20T00:22:28;100434.97;;;5.96;100.00
12172;BME280;6149;52.418;13.668;2023-12-20T00:24:54;100429.59;;;5.99;100.00
12172;BME280;6149;52.418;13.668;2023-12-20T00:27:21;100441.75;;;6.01;100.00
12172;BME280;6149;52.418;13.668;2023-12-20T00:29:48;100436.81;;;5.94;100.00
12172;BME280;6149;52.418;13.668;2023-12-20T00:32:15;100426.88;;;6.02;100.00
12172;BME280;6149;52.418;13.668;2023-12-20T00:34:43;100424.25;;;6.02;100.00
12172;BME280;6149;52.418;13.668;2023-12-20T00:37:10;100426.94;;;6.00;100.00
12172;BME280;6149;52.418;13.668;2023-12-20T00:39:38;100428.09;;;5.93;100.00
12172;BME280;6149;52.418;13.668;2023-12-20T00:42:05;100424.31;;;6.00;100.00
12172;BME280;6149;52.418;13.668;2023-12-20T00:44:32;100425.09;;;6.02;100.00
12172;BME280;6149;52.418;13.668;2023-12-20T00:46:58;100417.41;;;5.98;100.00
12172;BME280;6149;52.418;13.668;2023-12-20T00:49:26;100419.16;;;5.97;100.00
12172;BME280;6149;52.418;13.668;2023-12-20T00:51:53;100426.13;;;5.98;100.00
12172;BME280;6149;52.418;13.668;2023-12-20T00:54:20;100419.78;;;6.04;100.00
12172;BME280;6149;52.418;13.668;2023-12-20T00:56:48;100414.03;;;5.94;100.00
12172;BME280;6149;52.418;13.668;2023-12-20T00:59:16;100409.53;;;5.98;100.00
12172;BME280;6149;52.418;13.668;2023-12-20T01:01:45;100411.28;;;5.97;100.00
12172;BME280;6149;52.418;13.668;2023-12-20T01:04:13;100408.88;;;5.93;100.00
12172;BME280;6149;52.418;13.668;2023-12-20T01:06:41;100408.88;;;5.93;100.00
12172;BME280;6149;52.418;13.668;2023-12-20T01:09:09;100411.50;;;5.93;100.00
12172;BME280;6149;52.418;13.668;2023-12-20T01:11:35;100404.47;;;5.93;100.00
12172;BME280;6149;52.418;13.668;2023-12-20T01:14:06;100415.69;;;5.97;100.00
12172;BME280;6149;52.418;13.668;2023-12-20T01:16:33;100416.31;;;6.03;100.00
12172;BME280;6149;52.418;13.668;2023-12-20T01:19:01;100415.69;;;5.97;100.00
12172;BME280;6149;52.418;13.668;2023-12-20T01:21:31;100412.25;;;5.95;100.00
12172;BME280;6149;52.418;13.668;2023-12-20T01:23:58;100407.69;;;6.00;100.00
12172;BME280;6149;52.418;13.668;2023-12-20T01:26:26;100411.34;;;5.96;100.00
12172;BME280;6149;52.418;13.668;2023-12-20T01:28:54;100414.88;;;5.95;100.00
12172;BME280;6149;52.418;13.668;2023-12-20T01:31:22;100414.03;;;5.94;100.00
12172;BME280;6149;52.418;13.668;2023-12-20T01:33:48;100411.97;;;6.02;100.00
12172;BME280;6149;52.418;13.668;2023-12-20T01:36:16;100404.28;;;5.98;100.00
12172;BME280;6149;52.418;13.668;2023-12-20T01:38:44;100413.00;;;5.98;100.00
12172;BME280;6149;52.418;13.668;2023-12-20T01:41:12;100412.47;;;5.90;100.00
12172;BME280;6149;52.418;13.668;2023-12-20T01:43:39;100408.91;;;5.91;100.00
12172;BME280;6149;52.418;13.668;2023-12-20T01:46:05;100412.47;;;5.90;100.00
12172;BME280;6149;52.418;13.668;2023-12-20T01:48:36;100405.94;;;6.00;100.00
12172;BME280;6149;52.418;13.668;2023-12-20T01:51:03;100403.25;;;6.02;100.00
12172;BME280;6149;52.418;13.668;2023-12-20T01:53:31;100396.41;;;5.98;100.00
12172;BME280;6149;52.418;13.668;2023-12-20T01:55:58;100391.72;;;6.06;100.00
12172;BME280;6149;52.418;13.668;2023-12-20T01:58:27;100392.13;;;5.95;100.00
12172;BME280;6149;52.418;13.668;2023-12-20T02:00:55;100399.13;;;5.95;100.00
12172;BME280;6149;52.418;13.668;2023-12-20T02:03:23;100388.72;;;5.93;100.00
12172;BME280;6149;52.418;13.668;2023-12-20T02:05:54;100387.56;;;6.00;100.00
12172;BME280;6149;52.418;13.668;2023-12-20T02:08:25;100388.59;;;5.96;100.00
12172;BME280;6149;52.418;13.668;2023-12-20T02:11:01;100386.72;;;6.00;100.00
12172;BME280;6149;52.418;13.668;2023-12-20T02:13:28;100381.41;;;6.01;100.00
12172;BME280;6149;52.418;13.668;2023-12-20T02:15:55;100377.19;;;5.97;100.00
12172;BME280;6149;52.418;13.668;2023-12-20T02:18:24;100372.66;;;6.01;100.00
12172;BME280;6149;52.418;13.668;2023-12-20T02:20:51;100370.16;;;5.98;100.00
12172;BME280;6149;52.418;13.668;2023-12-20T02:23:20;100378.72;;;6.03;100.00
12172;BME280;6149;52.418;13.668;2023-12-20T02:25:47;100376.09;;;6.03;100.00
12172;BME280;6149;52.418;13.668;2023-12-20T02:28:14;100379.69;;;6.00;100.00
12172;BME280;6149;52.418;13.668;2023-12-20T02:30:41;100378.84;;;6.00;100.00
12172;BME280;6149;52.418;13.668;2023-12-20T02:33:10;100374.38;;;6.02;100.00
12172;BME280;6149;52.418;13.668;2023-12-20T02:35:37;100378.88;;;5.98;100.00
12172;BME280;6149;52.418;13.668;2023-12-20T02:38:04;100372.91;;;5.95;100.00
12172;BME280;6149;52.418;13.668;2023-12-20T02:40:32;100378.16;;;5.95;100.00
12172;BME280;6149;52.418;13.668;2023-12-20T02:42:59;100374.75;;;5.93;100.00
12172;BME280;6149;52.418;13.668;2023-12-20T02:45:26;100368.66;;;5.92;100.00
12172;BME280;6149;52.418;13.668;2023-12-20T02:47:53;100356.28;;;5.94;100.00
12172;BME280;6149;52.418;13.668;2023-12-20T02:50:19;100359.06;;;5.91;100.00
12172;BME280;6149;52.418;13.668;2023-12-20T02:52:46;100358.81;;;5.97;100.00
12172;BME280;6149;52.418;13.668;2023-12-20T02:55:13;100353.56;;;5.97;100.00
12172;BME280;6149;52.418;13.668;2023-12-20T02:57:42;100365.88;;;5.95;100.00
12172;BME280;6149;52.418;13.668;2023-12-20T03:00:09;100372.91;;;5.95;100.00
12172;BME280;6149;52.418;13.668;2023-12-20T03:02:37;100374.56;;;5.97;100.00
12172;BME280;6149;52.418;13.668;2023-12-20T03:05:04;100373.19;;;6.11;100.00
12172;BME280;6149;52.418;13.668;2023-12-20T03:07:31;100371.69;;;6.03;100.00
12172;BME280;6149;52.418;13.668;2023-12-20T03:09:58;100362.97;;;6.03;100.00
12172;BME280;6149;52.418;13.668;2023-12-20T03:12:25;100363.88;;;6.02;100.00
12172;BME280;6149;52.418;13.668;2023-12-20T03:14:52;100365.53;;;6.04;100.00
12172;BME280;6149;52.418;13.668;2023-12-20T03:17:20;100372.44;;;6.07;100.00
12172;BME280;6149;52.418;13.668;2023-12-20T03:19:47;100382.09;;;6.07;100.00
12172;BME280;6149;52.418;13.668;2023-12-20T03:22:14;100379.50;;;6.05;100.00
12172;BME280;6149;52.418;13.668;2023-12-20T03:24:41;100374.22;;;6.07;100.00
12172;BME280;6149;52.418;13.668;2023-12-20T03:27:07;100379.50;;;6.05;100.00
12172;BME280;6149;52.418;13.668;2023-12-20T03:29:34;100379.34;;;6.10;100.00
12172;BME280;6149;52.418;13.668;2023-12-20T03:32:03;100380.94;;;6.14;100.00
12172;BME280;6149;52.418;13.668;2023-12-20T03:34:30;100375.22;;;6.26;100.00
12172;BME280;6149;52.418;13.668;2023-12-20T03:36:57;100378.88;;;6.22;100.00
12172;BME280;6149;52.418;13.668;2023-12-20T03:39:23;100373.75;;;6.19;100.00
12172;BME280;6149;52.418;13.668;2023-12-20T03:41:50;100383.50;;;6.15;100.00
12172;BME280;6149;52.418;13.668;2023-12-20T03:44:17;100385.72;;;6.26;100.00
12172;BME280;6149;52.418;13.668;2023-12-20T03:46:44;100377.34;;;6.16;100.00
12172;BME280;6149;52.418;13.668;2023-12-20T03:49:12;100379.06;;;6.17;100.00
12172;BME280;6149;52.418;13.668;2023-12-20T03:51:39;100384.19;;;6.20;100.00
12172;BME280;6149;52.418;13.668;2023-12-20T03:54:07;100392.25;;;6.16;100.00
12172;BME280;6149;52.418;13.668;2023-12-20T03:56:34;100384.06;;;6.23;100.00
12172;BME280;6149;52.418;13.668;2023-12-20T03:59:00;100386.06;;;6.17;100.00
12172;BME280;6149;52.418;13.668;2023-12-20T04:01:27;100381.78;;;6.14;100.00
12172;BME280;6149;52.418;13.668;2023-12-20T04:03:54;100370.22;;;6.20;100.00
12172;BME280;6149;52.418;13.668;2023-12-20T04:06:22;100366.00;;;6.16;100.00
12172;BME280;6149;52.418;13.668;2023-12-20T04:08:49;100359.09;;;6.13;100.00
12172;BME280;6149;52.418;13.668;2023-12-20T04:11:15;100363.53;;;6.11;100.00
12172;BME280;6149;52.418;13.668;2023-12-20T04:13:42;100361.03;;;6.08;100.00
12172;BME280;6149;52.418;13.668;2023-12-20T04:16:09;100361.88;;;6.09;100.00
12172;BME280;6149;52.418;13.668;2023-12-20T04:18:35;100353.84;;;6.13;100.00
12172;BME280;6149;52.418;13.668;2023-12-20T04:21:03;100357.31;;;6.14;100.00
12172;BME280;6149;52.418;13.668;2023-12-20T04:23:31;100352.25;;;6.09;100.00
12172;BME280;6149;52.418;13.668;2023-12-20T04:25:59;100359.44;;;6.04;100.00
12172;BME280;6149;52.418;13.668;2023-12-20T04:28:25;100358.56;;;6.03;100.00
12172;BME280;6149;52.418;13.668;2023-12-20T04:30:55;100363.09;;;6.00;100.00
12172;BME280;6149;52.418;13.668;2023-12-20T04:33:22;100370.00;;;6.02;100.00
12172;BME280;6149;52.418;13.668;2023-12-20T04:35:48;100373.53;;;6.01;100.00
12172;BME280;6149;52.418;13.668;2023-12-20T04:38:15;100371.00;;;5.98;100.00
12172;BME280;6149;52.418;13.668;2023-12-20T04:40:43;100375.34;;;5.99;100.00
12172;BME280;6149;52.418;13.668;2023-12-20T04:43:10;100369.31;;;5.97;100.00
12172;BME280;6149;52.418;13.668;2023-12-20T04:45:37;100378.16;;;5.95;100.00
12172;BME280;6149;52.418;13.668;2023-12-20T04:48:04;100376.94;;;6.03;100.00
12172;BME280;6149;52.418;13.668;2023-12-20T04:50:33;100361.19;;;6.03;100.00
12172;BME280;6149;52.418;13.668;2023-12-20T04:52:59;100365.75;;;5.98;100.00
12172;BME280;6149;52.418;13.668;2023-12-20T04:55:26;100369.41;;;5.94;100.00
12172;BME280;6149;52.418;13.668;2023-12-20T04:57:54;100373.19;;;5.87;100.00
12172;BME280;6149;52.418;13.668;2023-12-20T05:00:21;100376.94;;;5.80;100.00
12172;BME280;6149;52.418;13.668;2023-12-20T05:02:48;100372.56;;;5.81;100.00
12172;BME280;6149;52.418;13.668;2023-12-20T05:05:15;100373.47;;;5.80;100.00
12172;BME280;6149;52.418;13.668;2023-12-20T05:07:43;100374.44;;;5.77;100.00
12172;BME280;6149;52.418;13.668;2023-12-20T05:10:12;100379.72;;;5.76;100.00
12172;BME280;6149;52.418;13.668;2023-12-20T05:12:39;100374.38;;;5.79;100.00
12172;BME280;6149;52.418;13.668;2023-12-20T05:15:08;100371.69;;;5.80;100.00
12172;BME280;6149;52.418;13.668;2023-12-20T05:17:34;100364.16;;;5.94;100.00
12172;BME280;6149;52.418;13.668;2023-12-20T05:20:01;100370.94;;;5.77;100.00
12172;BME280;6149;52.418;13.668;2023-12-20T05:22:29;100383.31;;;5.73;100.00
12172;BME280;6149;52.418;13.668;2023-12-20T05:24:55;100378.72;;;5.80;100.00
12172;BME280;6149;52.418;13.668;2023-12-20T05:27:22;100386.69;;;5.77;100.00
12172;BME280;6149;52.418;13.668;2023-12-20T05:29:49;100379.84;;;5.72;100.00
12172;BME280;6149;52.418;13.668;2023-12-20T05:32:18;100381.66;;;5.70;100.00
12172;BME280;6149;52.418;13.668;2023-12-20T05:34:44;100384.19;;;5.74;100.00
12172;BME280;6149;52.418;13.668;2023-12-20T05:37:11;100392.91;;;5.74;100.00
12172;BME280;6149;52.418;13.668;2023-12-20T05:39:38;100394.72;;;5.72;100.00
12172;BME280;6149;52.418;13.668;2023-12-20T05:42:04;100399.22;;;5.68;100.00
12172;BME280;6149;52.418;13.668;2023-12-20T05:44:31;100396.00;;;5.60;100.00
12172;BME280;6149;52.418;13.668;2023-12-20T05:46:58;100400.25;;;5.64;100.00
12172;BME280;6149;52.418;13.668;2023-12-20T05:49:26;100404.75;;;5.61;100.00
12172;BME280;6149;52.418;13.668;2023-12-20T05:51:52;100392.94;;;5.49;100.00
12172;BME280;6149;52.418;13.668;2023-12-20T05:54:19;100398.13;;;5.51;100.00
12172;BME280;6149;52.418;13.668;2023-12-20T05:56:46;100399.91;;;5.50;100.00
12172;BME280;6149;52.418;13.668;2023-12-20T05:59:13;100404.44;;;5.45;100.00
12172;BME280;6149;52.418;13.668;2023-12-20T06:01:39;100403.75;;;5.40;100.00
12172;BME280;6149;52.418;13.668;2023-12-20T06:04:06;100390.75;;;5.37;100.00
12172;BME280;6149;52.418;13.668;2023-12-20T06:06:40;100392.81;;;5.27;100.00
12172;BME280;6149;52.418;13.668;2023-12-20T06:09:07;100380.13;;;5.17;100.00
12172;BME280;6149;52.418;13.668;2023-12-20T06:11:34;100374.22;;;5.10;100.00
12172;BME280;6149;52.418;13.668;2023-12-20T06:14:00;100378.72;;;5.07;100.00
12172;BME280;6149;52.418;13.668;2023-12-20T06:16:27;100373.72;;;4.99;100.00
12172;BME280;6149;52.418;13.668;2023-12-20T06:18:54;100371.16;;;4.97;100.00
12172;BME280;6149;52.418;13.668;2023-12-20T06:21:20;100377.22;;;4.99;100.00
12172;BME280;6149;52.418;13.668;2023-12-20T06:23:48;100373.06;;;4.92;100.00
12172;BME280;6149;52.418;13.668;2023-12-20T06:26:15;100373.22;;;4.88;100.00
12172;BME280;6149;52.418;13.668;2023-12-20T06:28:41;100378.63;;;4.83;100.00
12172;BME280;6149;52.418;13.668;2023-12-20T06:31:08;100376.00;;;4.83;100.00
12172;BME280;6149;52.418;13.668;2023-12-20T06:33:35;100372.00;;;4.73;100.00
12172;BME280;6149;52.418;13.668;2023-12-20T06:36:03;100383.44;;;4.70;100.00
12172;BME280;6149;52.418;13.668;2023-12-20T06:38:30;100381.00;;;4.64;100.00
12172;BME280;6149;52.418;13.668;2023-12-20T06:40:58;100373.09;;;4.66;100.00
12172;BME280;6149;52.418;13.668;2023-12-20T06:43:24;100375.72;;;4.66;100.00
12172;BME280;6149;52.418;13.668;2023-12-20T06:45:51;100389.00;;;4.60;100.00
12172;BME280;6149;52.418;13.668;2023-12-20T06:48:18;100384.72;;;4.57;100.00
12172;BME280;6149;52.418;13.668;2023-12-20T06:50:45;100382.06;;;4.59;100.00
12172;BME280;6149;52.418;13.668;2023-12-20T06:53:12;100387.47;;;4.53;100.00
12172;BME280;6149;52.418;13.668;2023-12-20T06:55:39;100385.06;;;4.47;100.00
12172;BME280;6149;52.418;13.668;2023-12-20T06:58:07;100375.47;;;4.46;100.00
12172;BME280;6149;52.418;13.668;2023-12-20T07:00:35;100377.88;;;4.53;100.00
12172;BME280;6149;52.418;13.668;2023-12-20T07:03:03;100378.81;;;4.51;100.00
12172;BME280;6149;52.418;13.668;2023-12-20T07:05:30;100380.81;;;4.44;100.00
12172;BME280;6149;52.418;13.668;2023-12-20T07:07:58;100374.81;;;4.41;100.00
12172;BME280;6149;52.418;13.668;2023-12-20T07:10:25;100376.59;;;4.39;100.00
12172;BME280;6149;52.418;13.668;2023-12-20T07:12:51;100372.09;;;4.44;100.00
12172;BME280;6149;52.418;13.668;2023-12-20T07:15:21;100368.50;;;4.46;100.00
12172;BME280;6149;52.418;13.668;2023-12-20T07:17:48;100365.94;;;4.45;100.00
12172;BME280;6149;52.418;13.668;2023-12-20T07:20:15;100366.09;;;4.40;100.00
12172;BME280;6149;52.418;13.668;2023-12-20T07:22:42;100362.53;;;4.43;100.00
12172;BME280;6149;52.418;13.668;2023-12-20T07:25:09;100371.06;;;4.48;100.00
12172;BME280;6149;52.418;13.668;2023-12-20T07:27:36;100355.91;;;4.57;100.00
12172;BME280;6149;52.418;13.668;2023-12-20T07:30:03;100357.81;;;4.52;100.00
12172;BME280;6149;52.418;13.668;2023-12-20T07:32:32;100361.09;;;4.59;100.00
12172;BME280;6149;52.418;13.668;2023-12-20T07:34:59;100367.84;;;4.66;100.00
12172;BME280;6149;52.418;13.668;2023-12-20T07:37:25;100370.19;;;4.75;100.00
12172;BME280;6149;52.418;13.668;2023-12-20T07:39:52;100367.75;;;4.69;100.00
12172;BME280;6149;52.418;13.668;2023-12-20T07:42:18;100372.94;;;4.70;100.00
12172;BME280;6149;52.418;13.668;2023-12-20T07:44:47;100369.22;;;4.78;100.00
12172;BME280;6149;52.418;13.668;2023-12-20T07:47:14;100372.69;;;4.78;100.00
12172;BME280;6149;52.418;13.668;2023-12-20T07:49:45;100370.88;;;4.80;100.00
12172;BME280;6149;52.418;13.668;2023-12-20T07:52:12;100370.03;;;4.80;100.00
12172;BME280;6149;52.418;13.668;2023-12-20T07:54:39;100364.63;;;4.84;100.00
12172;BME280;6149;52.418;13.668;2023-12-20T07:57:06;100368.09;;;4.85;100.00
12172;BME280;6149;52.418;13.668;2023-12-20T07:59:33;100355.19;;;4.80;100.00
12172;BME280;6149;52.418;13.668;2023-12-20T08:02:00;100358.50;;;4.84;100.00
12172;BME280;6149;52.418;13.668;2023-12-20T08:04:26;100359.50;;;4.81;100.00
12172;BME280;6149;52.418;13.668;2023-12-20T08:06:54;100354.94;;;4.86;100.00
12172;BME280;6149;52.418;13.668;2023-12-20T08:09:21;100357.56;;;4.86;100.00
12172;BME280;6149;52.418;13.668;2023-12-20T08:11:48;100361.09;;;4.85;100.00
12172;BME280;6149;52.418;13.668;2023-12-20T08:14:15;100371.69;;;4.82;100.00
12172;BME280;6149;52.418;13.668;2023-12-20T08:16:42;100362.03;;;4.83;100.00
12172;BME280;6149;52.418;13.668;2023-12-20T08:19:08;100361.94;;;4.86;100.00
12172;BME280;6149;52.418;13.668;2023-12-20T08:21:35;100366.28;;;4.87;100.00
12172;BME280;6149;52.418;13.668;2023-12-20T08:24:04;100364.25;;;4.95;100.00
12172;BME280;6149;52.418;13.668;2023-12-20T08:26:32;100368.38;;;5.02;100.00
12172;BME280;6149;52.418;13.668;2023-12-20T08:29:00;100371.22;;;4.96;100.00
12172;BME280;6149;52.418;13.668;2023-12-20T08:31:25;100372.97;;;4.95;100.00
12172;BME280;6149;52.418;13.668;2023-12-20T08:33:52;100365.91;;;4.97;100.00
12172;BME280;6149;52.418;13.668;2023-12-20T08:36:19;100369.25;;;5.02;100.00
12172;BME280;6149;52.418;13.668;2023-12-20T08:38:46;100360.63;;;4.99;100.00
12172;BME280;6149;52.418;13.668;2023-12-20T08:41:15;100359.81;;;4.97;100.00
12172;BME280;6149;52.418;13.668;2023-12-20T08:43:42;100367.47;;;5.03;100.00
12172;BME280;6149;52.418;13.668;2023-12-20T08:46:09;100359.66;;;5.01;100.00
12172;BME280;6149;52.418;13.668;2023-12-20T08:48:37;100363.84;;;5.07;100.00
12172;BME280;6149;52.418;13.668;2023-12-20T08:51:03;100361.06;;;5.12;100.00
12172;BME280;6149;52.418;13.668;2023-12-20T08:53:32;100362.09;;;5.08;100.00
12172;BME280;6149;52.418;13.668;2023-12-20T08:55:59;100357.34;;;5.19;100.00
12172;BME280;6149;52.418;13.668;2023-12-20T08:58:28;100360.00;;;5.17;100.00
12172;BME280;6149;52.418;13.668;2023-12-20T09:00:55;100356.59;;;5.15;100.00
12172;BME280;6149;52.418;13.668;2023-12-20T09:03:22;100361.59;;;5.21;100.00
12172;BME280;6149;52.418;13.668;2023-12-20T09:05:49;100358.00;;;5.24;100.00
12172;BME280;6149;52.418;13.668;2023-12-20T09:08:16;100361.22;;;5.32;100.00
12172;BME280;6149;52.418;13.668;2023-12-20T09:10:42;100371.75;;;5.30;100.00
12172;BME280;6149;52.418;13.668;2023-12-20T09:13:09;100359.97;;;5.42;100.00
12172;BME280;6149;52.418;13.668;2023-12-20T09:15:37;100358.06;;;5.47;100.00
12172;BME280;6149;52.418;13.668;2023-12-20T09:18:05;100363.31;;;5.47;100.00
12172;BME280;6149;52.418;13.668;2023-12-20T09:20:32;100365.75;;;5.52;100.00
12172;BME280;6149;52.418;13.668;2023-12-20T09:22:59;100364.91;;;5.51;100.00
12172;BME280;6149;52.418;13.668;2023-12-20T09:25:25;100368.44;;;5.50;100.00
12172;BME280;6149;52.418;13.668;2023-12-20T09:27:52;100364.91;;;5.51;100.00
12172;BME280;6149;52.418;13.668;2023-12-20T09:30:18;100362.38;;;5.48;100.00
12172;BME280;6149;52.418;13.668;2023-12-20T09:32:46;100352.00;;;5.45;100.00
12172;BME280;6149;52.418;13.668;2023-12-20T09:35:13;100345.06;;;5.44;100.00
12172;BME280;6149;52.418;13.668;2023-12-20T09:37:40;100349.06;;;5.54;100.00
12172;BME280;6149;52.418;13.668;2023-12-20T09:40:11;100346.19;;;5.60;100.00
12172;BME280;6149;52.418;13.668;2023-12-20T09:42:46;100343.91;;;5.75;100.00
12172;BME280;6149;52.418;13.668;2023-12-20T09:45:15;100344.03;;;5.71;100.00
12172;BME280;6149;52.418;13.668;2023-12-20T09:47:48;100340.84;;;5.63;100.00
12172;BME280;6149;52.418;13.668;2023-12-20T09:50:17;100338.31;;;5.60;100.00
12172;BME280;6149;52.418;13.668;2023-12-20T09:52:47;100347.94;;;5.60;100.00
12172;BME280;6149;52.418;13.668;2023-12-20T09:55:17;100343.50;;;5.62;100.00
12172;BME280;6149;52.418;13.668;2023-12-20T09:57:45;100332.84;;;5.66;100.00
12172;BME280;6149;52.418;13.668;2023-12-20T10:00:13;100336.38;;;5.65;100.00
12172;BME280;6149;52.418;13.668;2023-12-20T10:02:46;100325.22;;;5.84;100.00
12172;BME280;6149;52.418;13.668;2023-12-20T10:05:26;100331.78;;;5.72;100.00
12172;BME280;6149;52.418;13.668;2023-12-20T10:07:54;100325.66;;;5.71;100.00
12172;BME280;6149;52.418;13.668;2023-12-20T10:10:21;100312.59;;;5.70;100.00
12172;BME280;6149;52.418;13.668;2023-12-20T10:13:02;100317.78;;;5.71;100.00
12172;BME280;6149;52.418;13.668;2023-12-20T10:15:30;100298.69;;;5.68;100.00
12172;BME280;6149;52.418;13.668;2023-12-20T10:17:58;100300.91;;;5.79;100.00
12172;BME280;6149;52.418;13.668;2023-12-20T10:20:25;100295.84;;;5.74;100.00
12172;BME280;6149;52.418;13.668;2023-12-20T10:22:54;100284.09;;;5.84;100.00
12172;BME280;6149;52.418;13.668;2023-12-20T10:25:21;100279.50;;;5.91;100.00
12172;BME280;6149;52.418;13.668;2023-12-20T10:27:48;100290.31;;;5.82;100.00
12172;BME280;6149;52.418;13.668;2023-12-20T10:30:16;100286.88;;;5.80;100.00
12172;BME280;6149;52.418;13.668;2023-12-20T10:32:42;100286.66;;;5.86;100.00
12172;BME280;6149;52.418;13.668;2023-12-20T10:35:10;100281.31;;;5.89;100.00
12172;BME280;6149;52.418;13.668;2023-12-20T10:37:37;100273.66;;;5.83;100.00
12172;BME280;6149;52.418;13.668;2023-12-20T10:40:06;100272.63;;;5.87;100.00
12172;BME280;6149;52.418;13.668;2023-12-20T10:42:35;100276.75;;;5.94;100.00
12172;BME280;6149;52.418;13.668;2023-12-20T10:45:03;100270.91;;;5.86;100.00
12172;BME280;6149;52.418;13.668;2023-12-20T10:47:31;100258.50;;;5.91;100.00
12172;BME280;6149;52.418;13.668;2023-12-20T10:49:59;100244.53;;;5.90;100.00
12172;BME280;6149;52.418;13.668;2023-12-20T10:52:29;100241.56;;;5.98;100.00
12172;BME280;6149;52.418;13.668;2023-12-20T10:54:59;100235.47;;;5.97;100.00
12172;BME280;6149;52.418;13.668;2023-12-20T10:57:26;100225.59;;;6.04;100.00
12172;BME280;6149;52.418;13.668;2023-12-20T10:59:54;100230.53;;;6.12;100.00
12172;BME280;6149;52.418;13.668;2023-12-20T11:02:22;100238.41;;;6.12;100.00
12172;BME280;6149;52.418;13.668;2023-12-20T11:04:52;100232.72;;;6.22;100.00
12172;BME280;6149;52.418;13.668;2023-12-20T11:07:25;100220.50;;;6.21;100.00
12172;BME280;6149;52.418;13.668;2023-12-20T11:10:02;100227.34;;;6.25;100.00
12172;BME280;6149;52.418;13.668;2023-12-20T11:12:41;100223.94;;;6.23;100.00
12172;BME280;6149;52.418;13.668;2023-12-20T11:15:12;100216.00;;;6.25;100.00
12172;BME280;6149;52.418;13.668;2023-12-20T11:17:39;100211.59;;;6.25;100.00
12172;BME280;6149;52.418;13.668;2023-12-20T11:20:08;100223.00;;;6.24;100.00
12172;BME280;6149;52.418;13.668;2023-12-20T11:22:40;100214.22;;;6.25;100.00
12172;BME280;6149;52.418;13.668;2023-12-20T11:25:18;100205.25;;;6.31;100.00
12172;BME280;6149;52.418;13.668;2023-12-20T11:28:08;100205.38;;;6.28;100.00
12172;BME280;6149;52.418;13.668;2023-12-20T11:30:42;100190.72;;;6.22;100.00
12172;BME280;6149;52.418;13.668;2023-12-20T11:33:13;100189.81;;;6.23;100.00
12172;BME280;6149;52.418;13.668;2023-12-20T11:35:40;100178.75;;;6.35;100.00
12172;BME280;6149;52.418;13.668;2023-12-20T11:38:09;100189.38;;;6.32;100.00
12172;BME280;6149;52.418;13.668;2023-12-20T11:40:36;100182.66;;;6.27;100.00
12172;BME280;6149;52.418;13.668;2023-12-20T11:43:03;100162.69;;;6.43;100.00
12172;BME280;6149;52.418;13.668;2023-12-20T11:45:31;100166.84;;;6.28;100.00
12172;BME280;6149;52.418;13.668;2023-12-20T11:47:59;100166.03;;;6.26;100.00
12172;BME280;6149;52.418;13.668;2023-12-20T11:50:27;100165.25;;;6.24;100.00
12172;BME280;6149;52.418;13.668;2023-12-20T11:52:55;100147.47;;;6.31;100.00
12172;BME280;6149;52.418;13.668;2023-12-20T11:55:23;100145.16;;;6.23;100.00
12172;BME280;6149;52.418;13.668;2023-12-20T11:57:50;100134.66;;;6.23;100.00
12172;BME280;6149;52.418;13.668;2023-12-20T12:00:18;100139.31;;;6.17;100.00
12172;BME280;6149;52.418;13.668;2023-12-20T12:02:55;100135.06;;;6.14;100.00
12172;BME280;6149;52.418;13.668;2023-12-20T12:05:22;100136.97;;;6.11;100.00
12172;BME280;6149;52.418;13.668;2023-12-20T12:07:49;100122.84;;;6.13;100.00
12172;BME280;6149;52.418;13.668;2023-12-20T12:10:16;100129.34;;;6.04;100.00
12172;BME280;6149;52.418;13.668;2023-12-20T12:12:44;100118.03;;;6.02;100.00
12172;BME280;6149;52.418;13.668;2023-12-20T12:15:10;100122.38;;;6.03;100.00
12172;BME280;6149;52.418;13.668;2023-12-20T12:17:37;100111.75;;;6.07;100.00
12172;BME280;6149;52.418;13.668;2023-12-20T12:20:05;100101.44;;;6.02;100.00
12172;BME280;6149;52.418;13.668;2023-12-20T12:22:33;100097.78;;;6.06;100.00
12172;BME280;6149;52.418;13.668;2023-12-20T12:25:09;100088.13;;;6.07;100.00
12172;BME280;6149;52.418;13.668;2023-12-20T12:27:36;100074.94;;;6.08;100.00
12172;BME280;6149;52.418;13.668;2023-12-20T12:30:06;100059.19;;;6.08;100.00
12172;BME280;6149;52.418;13.668;2023-12-20T12:32:33;100055.59;;;6.11;100.00
12172;BME280;6149;52.418;13.668;2023-12-20T12:35:00;100054.81;;;6.09;100.00
12172;BME280;6149;52.418;13.668;2023-12-20T12:37:26;100046.88;;;6.10;100.00
12172;BME280;6149;52.418;13.668;2023-12-20T12:39:53;100047.31;;;6.20;100.00
12172;BME280;6149;52.418;13.668;2023-12-20T12:42:20;100043.78;;;6.21;100.00
12172;BME280;6149;52.418;13.668;2023-12-20T12:44:46;100041.53;;;6.12;100.00
12172;BME280;6149;52.418;13.668;2023-12-20T12:47:14;100037.28;;;6.09;100.00
12172;BME280;6149;52.418;13.668;2023-12-20T12:49:41;100032.88;;;6.10;100.00
12172;BME280;6149;52.418;13.668;2023-12-20T12:52:07;100023.03;;;6.15;100.00